Home > Products > Valid Products > TAF

000
FTUS45 KBOU 011217 AAA
TAFDEN
TAF AMD
KDEN 011217Z 0112/0218 18006KT P6SM BKN050 BKN100
     FM011500 VRB05KT P6SM SCT050 SCT100
     FM011900 07007KT P6SM SCT100
     FM020200 13005KT P6SM FEW100
     FM020600 23005KT P6SM FEW200=



000
FTUS45 KBOU 011217 AAA
TAFDEN
TAF AMD
KDEN 011217Z 0112/0218 18006KT P6SM BKN050 BKN100
     FM011500 VRB05KT P6SM SCT050 SCT100
     FM011900 07007KT P6SM SCT100
     FM020200 13005KT P6SM FEW100
     FM020600 23005KT P6SM FEW200=



000
FTUS45 KBOU 011120
TAFBJC
TAF
KBJC 011120Z 0112/0212 VRB03KT P6SM FEW070 SCT130
     FM011800 08006KT P6SM SCT100
     FM020200 VRB03KT P6SM FEW100=



000
FTUS45 KBOU 011120
TAFDEN
TAF
KDEN 011120Z 0112/0218 18007KT P6SM FEW070 SCT130
     FM011900 07007KT P6SM SCT100
     FM020200 13005KT P6SM FEW100
     FM020600 23005KT P6SM FEW200=



000
FTUS45 KBOU 011120
TAFAPA
TAF
KAPA 011120Z 0112/0212 15003KT P6SM FEW040 SCT070
     FM011900 04006KT P6SM SCT100
     FM020200 12006KT P6SM FEW100
     FM020600 22004KT P6SM FEW200=



000
FTUS45 KBOU 011120
TAFAPA
TAF
KAPA 011120Z 0112/0212 15003KT P6SM FEW040 SCT070
     FM011900 04006KT P6SM SCT100
     FM020200 12006KT P6SM FEW100
     FM020600 22004KT P6SM FEW200=



000
FTUS45 KBOU 011120
TAFBJC
TAF
KBJC 011120Z 0112/0212 VRB03KT P6SM FEW070 SCT130
     FM011800 08006KT P6SM SCT100
     FM020200 VRB03KT P6SM FEW100=



000
FTUS45 KBOU 011120
TAFDEN
TAF
KDEN 011120Z 0112/0218 18007KT P6SM FEW070 SCT130
     FM011900 07007KT P6SM SCT100
     FM020200 13005KT P6SM FEW100
     FM020600 23005KT P6SM FEW200=



000
FTUS45 KBOU 010915 AAA
TAFBJC
TAF AMD
KBJC 010915Z 0109/0206 VRB03KT P6SM FEW120
     FM011700 08006KT P6SM FEW090 SCT120
     FM020100 15006KT P6SM SCT200=



000
FTUS45 KBOU 010915 AAA
TAFAPA
TAF AMD
KAPA 010915Z 0109/0206 18005KT P6SM FEW120
     FM011900 04006KT P6SM FEW090 SCT120
     FM020100 15006KT P6SM SCT200=



000
FTUS45 KBOU 010910 AAA
TAFDEN
TAF AMD
KDEN 010910Z 0109/0212 18007KT P6SM FEW130
     FM011900 04006KT P6SM FEW090 SCT120
     FM020100 15006KT P6SM SCT200=



000
FTUS45 KBOU 010910 AAA
TAFDEN
TAF AMD
KDEN 010910Z 0109/0212 18007KT P6SM FEW130
     FM011900 04006KT P6SM FEW090 SCT120
     FM020100 15006KT P6SM SCT200=



000
FTUS45 KBOU 010528
TAFDEN
TAF
KDEN 010528Z 0106/0212 04010KT P6SM SCT220
     FM010800 19008KT P6SM FEW200
     FM011400 VRB05KT P6SM FEW090 SCT120
     FM011900 04006KT P6SM FEW090 SCT120
     FM020100 15006KT P6SM SCT200=



000
FTUS45 KBOU 010528
TAFBJC
TAF
KBJC 010528Z 0106/0206 29006KT P6SM FEW120 SCT200
     FM011400 VRB05KT P6SM FEW090 SCT120
     FM011900 08006KT P6SM FEW090 SCT120
     FM020100 15006KT P6SM SCT200=



000
FTUS45 KBOU 010528
TAFAPA
TAF
KAPA 010528Z 0106/0206 12006KT P6SM SCT220
     FM010800 20007KT P6SM FEW120 SCT200
     FM011400 VRB05KT P6SM FEW090 SCT120
     FM011900 04006KT P6SM FEW090 SCT120
     FM020100 15006KT P6SM SCT200=



000
FTUS45 KBOU 010528
TAFBJC
TAF
KBJC 010528Z 0106/0206 29006KT P6SM FEW120 SCT200
     FM011400 VRB05KT P6SM FEW090 SCT120
     FM011900 08006KT P6SM FEW090 SCT120
     FM020100 15006KT P6SM SCT200=



000
FTUS45 KBOU 010528
TAFDEN
TAF
KDEN 010528Z 0106/0212 04010KT P6SM SCT220
     FM010800 19008KT P6SM FEW200
     FM011400 VRB05KT P6SM FEW090 SCT120
     FM011900 04006KT P6SM FEW090 SCT120
     FM020100 15006KT P6SM SCT200=



000
FTUS45 KBOU 010528
TAFAPA
TAF
KAPA 010528Z 0106/0206 12006KT P6SM SCT220
     FM010800 20007KT P6SM FEW120 SCT200
     FM011400 VRB05KT P6SM FEW090 SCT120
     FM011900 04006KT P6SM FEW090 SCT120
     FM020100 15006KT P6SM SCT200=



000
FTUS45 KBOU 010202 AAB
TAFDEN
TAF AMD
KDEN 010202Z 0102/0206 36006KT P6SM SCT080 SCT120 BKN200
     FM010400 15007KT P6SM FEW120 SCT200
     FM010600 20010KT P6SM FEW200
     FM011400 VRB05KT P6SM FEW090 SCT120
     FM011900 08006KT P6SM FEW090 SCT120=



000
FTUS45 KBOU 010202 AAB
TAFDEN
TAF AMD
KDEN 010202Z 0102/0206 36006KT P6SM SCT080 SCT120 BKN200
     FM010400 15007KT P6SM FEW120 SCT200
     FM010600 20010KT P6SM FEW200
     FM011400 VRB05KT P6SM FEW090 SCT120
     FM011900 08006KT P6SM FEW090 SCT120=



000
FTUS45 KBOU 010202 AAB
TAFDEN
TAF AMD
KDEN 010202Z 0102/0206 36006KT P6SM SCT080 SCT120 BKN200
     FM010400 15007KT P6SM FEW120 SCT200
     FM010600 20010KT P6SM FEW200
     FM011400 VRB05KT P6SM FEW090 SCT120
     FM011900 08006KT P6SM FEW090 SCT120=



000
FTUS45 KBOU 010202 AAB
TAFDEN
TAF AMD
KDEN 010202Z 0102/0206 36006KT P6SM SCT080 SCT120 BKN200
     FM010400 15007KT P6SM FEW120 SCT200
     FM010600 20010KT P6SM FEW200
     FM011400 VRB05KT P6SM FEW090 SCT120
     FM011900 08006KT P6SM FEW090 SCT120=



000
FTUS45 KBOU 010059 AAA
TAFDEN
TAF AMD
KDEN 010059Z 0101/0206 06007KT P6SM VCSH SCT080 BKN120 BKN200
     FM010200 11008KT P6SM SCT080 SCT120 BKN200
     FM010400 15007KT P6SM FEW120 SCT200
     FM010600 20010KT P6SM FEW200
     FM011400 VRB05KT P6SM FEW090 SCT120
     FM011900 08006KT P6SM FEW090 SCT120=



000
FTUS45 KBOU 010059 AAA
TAFDEN
TAF AMD
KDEN 010059Z 0101/0206 06007KT P6SM VCSH SCT080 BKN120 BKN200
     FM010200 11008KT P6SM SCT080 SCT120 BKN200
     FM010400 15007KT P6SM FEW120 SCT200
     FM010600 20010KT P6SM FEW200
     FM011400 VRB05KT P6SM FEW090 SCT120
     FM011900 08006KT P6SM FEW090 SCT120=



000
FTUS45 KBOU 010000 AAA
TAFAPA
TAF AMD
KAPA 010000Z 0100/0124 06008KT P6SM VCSH SCT080 BKN120
     FM010200 06008KT P6SM SCT080 SCT120
     FM010400 15007KT P6SM FEW120
     FM010600 19009KT P6SM SKC
     FM011400 VRB05KT P6SM FEW090 SCT120
     FM011900 04006KT P6SM FEW090 SCT120=



000
FTUS45 KBOU 010000 AAA
TAFAPA
TAF AMD
KAPA 010000Z 0100/0124 06008KT P6SM VCSH SCT080 BKN120
     FM010200 06008KT P6SM SCT080 SCT120
     FM010400 15007KT P6SM FEW120
     FM010600 19009KT P6SM SKC
     FM011400 VRB05KT P6SM FEW090 SCT120
     FM011900 04006KT P6SM FEW090 SCT120=



000
FTUS45 KBOU 312320
TAFDEN
TAF
KDEN 312320Z 0100/0206 07010KT P6SM VCSH SCT080 BKN120 BKN200
     FM010100 11008KT P6SM SCT080 SCT120 BKN200
     FM010400 15007KT P6SM FEW120 SCT200
     FM010600 20010KT P6SM FEW200
     FM011400 VRB05KT P6SM FEW090 SCT120
     FM011900 08006KT P6SM FEW090 SCT120=



000
FTUS45 KBOU 312320
TAFBJC
TAF
KBJC 312320Z 0100/0124 03006KT P6SM VCSH SCT060 BKN120
     FM010200 31007KT P6SM SCT080 SCT120
     FM010500 26008KT P6SM FEW120 SCT200
     FM011400 VRB05KT P6SM FEW090 SCT120
     FM011900 08006KT P6SM FEW090 SCT120=



000
FTUS45 KBOU 312320
TAFAPA
TAF
KAPA 312320Z 0100/0124 01013KT P6SM VCSH SCT080 BKN120
     FM010200 06008KT P6SM SCT080 SCT120
     FM010400 15007KT P6SM FEW120
     FM010600 19009KT P6SM SKC
     FM011400 VRB05KT P6SM FEW090 SCT120
     FM011900 04006KT P6SM FEW090 SCT120=



000
FTUS45 KBOU 312320
TAFDEN
TAF
KDEN 312320Z 0100/0206 07010KT P6SM VCSH SCT080 BKN120 BKN200
     FM010100 11008KT P6SM SCT080 SCT120 BKN200
     FM010400 15007KT P6SM FEW120 SCT200
     FM010600 20010KT P6SM FEW200
     FM011400 VRB05KT P6SM FEW090 SCT120
     FM011900 08006KT P6SM FEW090 SCT120=



000
FTUS45 KBOU 312320
TAFBJC
TAF
KBJC 312320Z 0100/0124 03006KT P6SM VCSH SCT060 BKN120
     FM010200 31007KT P6SM SCT080 SCT120
     FM010500 26008KT P6SM FEW120 SCT200
     FM011400 VRB05KT P6SM FEW090 SCT120
     FM011900 08006KT P6SM FEW090 SCT120=



000
FTUS45 KBOU 312320
TAFAPA
TAF
KAPA 312320Z 0100/0124 01013KT P6SM VCSH SCT080 BKN120
     FM010200 06008KT P6SM SCT080 SCT120
     FM010400 15007KT P6SM FEW120
     FM010600 19009KT P6SM SKC
     FM011400 VRB05KT P6SM FEW090 SCT120
     FM011900 04006KT P6SM FEW090 SCT120=



000
FTUS45 KBOU 312202 AAB
TAFBJC
TAF AMD
KBJC 312202Z 3122/0118 02015KT P6SM VCTS SCT080CB BKN130
      TEMPO 3122/3123 VRB20G35KT
     FM010000 31010KT P6SM SCT080 SCT130
     FM010200 VRB05KT P6SM FEW120
     FM010500 26011KT P6SM SKC
     FM011700 VRB05KT P6SM FEW090 SCT120=



000
FTUS45 KBOU 312202 AAB
TAFBJC
TAF AMD
KBJC 312202Z 3122/0118 02015KT P6SM VCTS SCT080CB BKN130
      TEMPO 3122/3123 VRB20G35KT
     FM010000 31010KT P6SM SCT080 SCT130
     FM010200 VRB05KT P6SM FEW120
     FM010500 26011KT P6SM SKC
     FM011700 VRB05KT P6SM FEW090 SCT120=



000
FTUS45 KBOU 312201 AAB
TAFAPA
TAF AMD
KAPA 312201Z 3122/0118 08010KT P6SM FEW080 SCT120 BKN180
     FM312300 04013KT P6SM SCT080 BKN120
     FM010000 35010KT P6SM SCT080 SCT130
     FM010200 VRB05KT P6SM FEW120
     FM010500 19009KT P6SM SKC
     FM011600 VRB05KT P6SM FEW090 SCT120=



000
FTUS45 KBOU 312201 AAB
TAFAPA
TAF AMD
KAPA 312201Z 3122/0118 08010KT P6SM FEW080 SCT120 BKN180
     FM312300 04013KT P6SM SCT080 BKN120
     FM010000 35010KT P6SM SCT080 SCT130
     FM010200 VRB05KT P6SM FEW120
     FM010500 19009KT P6SM SKC
     FM011600 VRB05KT P6SM FEW090 SCT120=



000
FTUS45 KBOU 312058 AAA
TAFAPA
TAF AMD
KAPA 312058Z 3121/0118 14010KT P6SM FEW080 SCT120 BKN180
     FM312200 04013KT P6SM SCT080 BKN120
     FM010000 35010KT P6SM SCT080 SCT130
     FM010200 VRB05KT P6SM FEW120
     FM010500 19009KT P6SM SKC
     FM011600 VRB05KT P6SM FEW090 SCT120=



000
FTUS45 KBOU 312058 AAA
TAFAPA
TAF AMD
KAPA 312058Z 3121/0118 14010KT P6SM FEW080 SCT120 BKN180
     FM312200 04013KT P6SM SCT080 BKN120
     FM010000 35010KT P6SM SCT080 SCT130
     FM010200 VRB05KT P6SM FEW120
     FM010500 19009KT P6SM SKC
     FM011600 VRB05KT P6SM FEW090 SCT120=



000
FTUS45 KBOU 312056 AAB
TAFDEN
TAF AMD
KDEN 312056Z 3121/0124 10012KT P6SM FEW080 SCT120 BKN180
     FM312130 03014G22KT P6SM VCTS SCT080CB BKN120
      TEMPO 3122/3124 VRB20G32KT
     FM010000 35011KT P6SM SCT080 SCT130
     FM010300 VRB05KT P6SM FEW120
     FM010600 20010KT P6SM SKC
     FM011700 VRB05KT P6SM FEW090 SCT120=



000
FTUS45 KBOU 312056 AAB
TAFDEN
TAF AMD
KDEN 312056Z 3121/0124 10012KT P6SM FEW080 SCT120 BKN180
     FM312130 03014G22KT P6SM VCTS SCT080CB BKN120
      TEMPO 3122/3124 VRB20G32KT
     FM010000 35011KT P6SM SCT080 SCT130
     FM010300 VRB05KT P6SM FEW120
     FM010600 20010KT P6SM SKC
     FM011700 VRB05KT P6SM FEW090 SCT120=



000
FTUS45 KBOU 312026 AAA
TAFBJC
TAF AMD
KBJC 312026Z 3120/0118 12010KT P6SM VCTS SCT080CB BKN130
      TEMPO 3120/3122 VRB20G35KT 5SM -TSRA BKN080CB
     FM010000 31010KT P6SM SCT080 SCT130
     FM010200 VRB05KT P6SM FEW120
     FM010500 26011KT P6SM SKC
     FM011700 VRB05KT P6SM FEW090 SCT120=



000
FTUS45 KBOU 312026 AAA
TAFBJC
TAF AMD
KBJC 312026Z 3120/0118 12010KT P6SM VCTS SCT080CB BKN130
      TEMPO 3120/3122 VRB20G35KT 5SM -TSRA BKN080CB
     FM010000 31010KT P6SM SCT080 SCT130
     FM010200 VRB05KT P6SM FEW120
     FM010500 26011KT P6SM SKC
     FM011700 VRB05KT P6SM FEW090 SCT120=



000
FTUS45 KBOU 311838 AAA
TAFDEN
TAF AMD
KDEN 311838Z 3119/0124 11011KT P6SM FEW080 SCT120 BKN180
     FM312100 34014G22KT P6SM SCT080 BKN120
      TEMPO 3121/3124 VRB20G32KT
     FM010000 35011KT P6SM SCT080 SCT130
     FM010300 VRB05KT P6SM FEW120
     FM010600 20010KT P6SM SKC
     FM011700 VRB05KT P6SM FEW090 SCT120=



000
FTUS45 KBOU 311838 AAA
TAFDEN
TAF AMD
KDEN 311838Z 3119/0124 11011KT P6SM FEW080 SCT120 BKN180
     FM312100 34014G22KT P6SM SCT080 BKN120
      TEMPO 3121/3124 VRB20G32KT
     FM010000 35011KT P6SM SCT080 SCT130
     FM010300 VRB05KT P6SM FEW120
     FM010600 20010KT P6SM SKC
     FM011700 VRB05KT P6SM FEW090 SCT120=



000
FTUS45 KBOU 311736
TAFDEN
TAF
KDEN 311736Z 3118/0124 07008KT P6SM FEW080 SCT120 BKN180
     FM312100 34014G22KT P6SM SCT080 BKN120
      TEMPO 3121/3124 VRB20G32KT
     FM010000 35011KT P6SM SCT080 SCT130
     FM010300 VRB05KT P6SM FEW120
     FM010600 20010KT P6SM SKC
     FM011700 VRB05KT P6SM FEW090 SCT120=



000
FTUS45 KBOU 311736
TAFBJC
TAF
KBJC 311736Z 3118/0118 VRB05KT P6SM SCT080 BKN130
     FM311900 30008KT P6SM VCTS SCT080CB BKN130
      TEMPO 3119/3122 VRB20G30KT BKN080CB
     FM010000 31010KT P6SM SCT080 SCT130
     FM010200 VRB05KT P6SM FEW120
     FM010500 26011KT P6SM SKC
     FM011700 VRB05KT P6SM FEW090 SCT120=



000
FTUS45 KBOU 311736
TAFAPA
TAF
KAPA 311736Z 3118/0118 06009KT P6SM FEW080 SCT120 BKN180
     FM312100 36012KT P6SM SCT080 BKN120
     FM010000 35010KT P6SM SCT080 SCT130
     FM010200 VRB05KT P6SM FEW120
     FM010500 19009KT P6SM SKC
     FM011600 VRB05KT P6SM FEW090 SCT120=



000
FTUS45 KBOU 311736
TAFBJC
TAF
KBJC 311736Z 3118/0118 VRB05KT P6SM SCT080 BKN130
     FM311900 30008KT P6SM VCTS SCT080CB BKN130
      TEMPO 3119/3122 VRB20G30KT BKN080CB
     FM010000 31010KT P6SM SCT080 SCT130
     FM010200 VRB05KT P6SM FEW120
     FM010500 26011KT P6SM SKC
     FM011700 VRB05KT P6SM FEW090 SCT120=



000
FTUS45 KBOU 311736
TAFDEN
TAF
KDEN 311736Z 3118/0124 07008KT P6SM FEW080 SCT120 BKN180
     FM312100 34014G22KT P6SM SCT080 BKN120
      TEMPO 3121/3124 VRB20G32KT
     FM010000 35011KT P6SM SCT080 SCT130
     FM010300 VRB05KT P6SM FEW120
     FM010600 20010KT P6SM SKC
     FM011700 VRB05KT P6SM FEW090 SCT120=



000
FTUS45 KBOU 311736
TAFAPA
TAF
KAPA 311736Z 3118/0118 06009KT P6SM FEW080 SCT120 BKN180
     FM312100 36012KT P6SM SCT080 BKN120
     FM010000 35010KT P6SM SCT080 SCT130
     FM010200 VRB05KT P6SM FEW120
     FM010500 19009KT P6SM SKC
     FM011600 VRB05KT P6SM FEW090 SCT120=



000
FTUS45 KBOU 311658 AAC
TAFAPA
TAF AMD
KAPA 311658Z 3117/0112 04009KT P6SM SCT120 BKN200
     FM312000 35012KT P6SM VCTS SCT080CB BKN130
      TEMPO 3120/3124 VRB18G30KT BKN080CB
     FM010000 35012KT P6SM SCT080 SCT130
     FM010400 VRB04KT P6SM SCT100=



000
FTUS45 KBOU 311658 AAC
TAFAPA
TAF AMD
KAPA 311658Z 3117/0112 04009KT P6SM SCT120 BKN200
     FM312000 35012KT P6SM VCTS SCT080CB BKN130
      TEMPO 3120/3124 VRB18G30KT BKN080CB
     FM010000 35012KT P6SM SCT080 SCT130
     FM010400 VRB04KT P6SM SCT100=



000
FTUS45 KBOU 311656 AAC
TAFDEN
TAF AMD
KDEN 311656Z 3117/0118 04008KT P6SM FEW080 SCT120 BKN180
     FM312000 35012KT P6SM VCTS SCT080CB BKN130
      TEMPO 3121/3124 VRB18G30KT BKN080CB
     FM010000 35012KT P6SM SCT080 SCT130
     FM010500 VRB05KT P6SM SCT100=



000
FTUS45 KBOU 311656 AAC
TAFDEN
TAF AMD
KDEN 311656Z 3117/0118 04008KT P6SM FEW080 SCT120 BKN180
     FM312000 35012KT P6SM VCTS SCT080CB BKN130
      TEMPO 3121/3124 VRB18G30KT BKN080CB
     FM010000 35012KT P6SM SCT080 SCT130
     FM010500 VRB05KT P6SM SCT100=



000
FTUS45 KBOU 311420 AAB
TAFAPA
TAF AMD
KAPA 311420Z 3114/0112 03009KT P6SM SCT120 BKN200
     FM311700 08009KT P6SM FEW080 SCT120 BKN150
     FM312000 35012KT P6SM VCTS SCT080CB BKN130
      TEMPO 3120/3124 VRB18G30KT BKN080CB
     FM010000 35012KT P6SM SCT080 SCT130
     FM010400 VRB04KT P6SM SCT100=



000
FTUS45 KBOU 311420 AAB
TAFAPA
TAF AMD
KAPA 311420Z 3114/0112 03009KT P6SM SCT120 BKN200
     FM311700 08009KT P6SM FEW080 SCT120 BKN150
     FM312000 35012KT P6SM VCTS SCT080CB BKN130
      TEMPO 3120/3124 VRB18G30KT BKN080CB
     FM010000 35012KT P6SM SCT080 SCT130
     FM010400 VRB04KT P6SM SCT100=



000
FTUS45 KBOU 311413 AAB
TAFDEN
TAF AMD
KDEN 311413Z 3114/0118 03011KT P6SM SCT120 BKN180
     FM311700 08010KT P6SM FEW080 SCT120 BKN150
     FM312000 35012KT P6SM VCTS SCT080CB BKN130
      TEMPO 3121/3124 VRB18G30KT BKN080CB
     FM010000 35012KT P6SM SCT080 SCT130
     FM010500 VRB05KT P6SM SCT100=



000
FTUS45 KBOU 311413 AAB
TAFDEN
TAF AMD
KDEN 311413Z 3114/0118 03011KT P6SM SCT120 BKN180
     FM311700 08010KT P6SM FEW080 SCT120 BKN150
     FM312000 35012KT P6SM VCTS SCT080CB BKN130
      TEMPO 3121/3124 VRB18G30KT BKN080CB
     FM010000 35012KT P6SM SCT080 SCT130
     FM010500 VRB05KT P6SM SCT100=



000
FTUS45 KBOU 311317 AAA
TAFAPA
TAF AMD
KAPA 311317Z 3113/0112 21008KT P6SM FEW130 BKN200
     FM311400 33008KT P6SM SCT120 BKN200
     FM311600 02009KT P6SM FEW080 SCT120 BKN170
     FM311900 35012G20KT P6SM VCTS SCT080CB BKN130
      TEMPO 3119/3123 VRB18G30KT BKN080CB
     FM010000 35012KT P6SM SCT080 SCT130
     FM010400 VRB04KT P6SM SCT100=



000
FTUS45 KBOU 311317 AAA
TAFAPA
TAF AMD
KAPA 311317Z 3113/0112 21008KT P6SM FEW130 BKN200
     FM311400 33008KT P6SM SCT120 BKN200
     FM311600 02009KT P6SM FEW080 SCT120 BKN170
     FM311900 35012G20KT P6SM VCTS SCT080CB BKN130
      TEMPO 3119/3123 VRB18G30KT BKN080CB
     FM010000 35012KT P6SM SCT080 SCT130
     FM010400 VRB04KT P6SM SCT100=



000
FTUS45 KBOU 311314 AAA
TAFBJC
TAF AMD
KBJC 311314Z 3113/0112 32009KT P6SM FEW130 BKN200
     FM311500 36011KT P6SM SCT080 BKN130
     FM311900 07012KT P6SM VCTS SCT080CB BKN130
      TEMPO 3119/3123 VRB18G30KT BKN080CB
     FM312300 26012KT P6SM SCT080 SCT130=



000
FTUS45 KBOU 311314 AAA
TAFBJC
TAF AMD
KBJC 311314Z 3113/0112 32009KT P6SM FEW130 BKN200
     FM311500 36011KT P6SM SCT080 BKN130
     FM311900 07012KT P6SM VCTS SCT080CB BKN130
      TEMPO 3119/3123 VRB18G30KT BKN080CB
     FM312300 26012KT P6SM SCT080 SCT130=



000
FTUS45 KBOU 311248 AAA
TAFDEN
TAF AMD
KDEN 311248Z 3113/0118 28009KT P6SM SCT120 BKN200
     FM311400 35011KT P6SM FEW090 SCT120 BKN180
     FM311900 35012G20KT P6SM VCTS SCT080CB BKN130
      TEMPO 3119/3123 VRB18G30KT BKN080CB
     FM010000 35012KT P6SM SCT080 SCT130
     FM010500 VRB05KT P6SM SCT100=



000
FTUS45 KBOU 311248 AAA
TAFDEN
TAF AMD
KDEN 311248Z 3113/0118 28009KT P6SM SCT120 BKN200
     FM311400 35011KT P6SM FEW090 SCT120 BKN180
     FM311900 35012G20KT P6SM VCTS SCT080CB BKN130
      TEMPO 3119/3123 VRB18G30KT BKN080CB
     FM010000 35012KT P6SM SCT080 SCT130
     FM010500 VRB05KT P6SM SCT100=



000
FTUS45 KBOU 311139
TAFBJC
TAF
KBJC 311139Z 3112/0112 28005KT P6SM FEW130 BKN200
     FM311330 28011KT P6SM SCT080 BKN130
     FM311900 07012KT P6SM VCTS SCT080CB BKN130
      TEMPO 3119/3123 VRB18G30KT BKN080CB
     FM312300 26012KT P6SM SCT080 SCT130=



000
FTUS45 KBOU 311139
TAFAPA
TAF
KAPA 311139Z 3112/0112 17008KT P6SM FEW130 BKN200
     FM311500 23009KT P6SM SCT080 BKN130
     FM311900 35012G20KT P6SM VCTS SCT080CB BKN130
      TEMPO 3119/3123 VRB18G30KT BKN080CB
     FM010000 35012KT P6SM SCT080 SCT130
     FM010400 VRB04KT P6SM SCT100=



000
FTUS45 KBOU 311139
TAFDEN
TAF
KDEN 311139Z 3112/0118 18007KT P6SM FEW130 BKN200
     FM311400 28009KT P6SM SCT080 BKN130
     FM311900 35012G20KT P6SM VCTS SCT080CB BKN130
      TEMPO 3119/3123 VRB18G30KT BKN080CB
     FM010000 35012KT P6SM SCT080 SCT130
     FM010500 VRB05KT P6SM SCT100=



000
FTUS45 KBOU 311139
TAFBJC
TAF
KBJC 311139Z 3112/0112 28005KT P6SM FEW130 BKN200
     FM311330 28011KT P6SM SCT080 BKN130
     FM311900 07012KT P6SM VCTS SCT080CB BKN130
      TEMPO 3119/3123 VRB18G30KT BKN080CB
     FM312300 26012KT P6SM SCT080 SCT130=



000
FTUS45 KBOU 311139
TAFAPA
TAF
KAPA 311139Z 3112/0112 17008KT P6SM FEW130 BKN200
     FM311500 23009KT P6SM SCT080 BKN130
     FM311900 35012G20KT P6SM VCTS SCT080CB BKN130
      TEMPO 3119/3123 VRB18G30KT BKN080CB
     FM010000 35012KT P6SM SCT080 SCT130
     FM010400 VRB04KT P6SM SCT100=



000
FTUS45 KBOU 311139
TAFDEN
TAF
KDEN 311139Z 3112/0118 18007KT P6SM FEW130 BKN200
     FM311400 28009KT P6SM SCT080 BKN130
     FM311900 35012G20KT P6SM VCTS SCT080CB BKN130
      TEMPO 3119/3123 VRB18G30KT BKN080CB
     FM010000 35012KT P6SM SCT080 SCT130
     FM010500 VRB05KT P6SM SCT100=



000
FTUS45 KBOU 310908 AAA
TAFBJC
TAF AMD
KBJC 310908Z 3109/0106 31005KT P6SM SCT120
     FM311300 28011KT P6SM SCT090 BKN150
     FM311900 07011KT P6SM SCT090 BKN150 PROB30 3120/3124 VRB18G30KT
      -TSRA BKN090CB
     FM010000 28012KT P6SM SCT150=



000
FTUS45 KBOU 310908 AAA
TAFDEN
TAF AMD
KDEN 310908Z 3109/0112 21009KT P6SM FEW130
     FM311400 28009KT P6SM SCT090 BKN150
     FM311900 01012KT P6SM SCT090 BKN150 PROB30 3120/3124 VRB18G30KT
      -TSRA BKN090CB
     FM010100 33009KT P6SM SCT150
     FM010600 VRB05KT P6SM BKN200=



000
FTUS45 KBOU 310908 AAA
TAFBJC
TAF AMD
KBJC 310908Z 3109/0106 31005KT P6SM SCT120
     FM311300 28011KT P6SM SCT090 BKN150
     FM311900 07011KT P6SM SCT090 BKN150 PROB30 3120/3124 VRB18G30KT
      -TSRA BKN090CB
     FM010000 28012KT P6SM SCT150=



000
FTUS45 KBOU 310550
TAFAPA
TAF
KAPA 310550Z 3106/0106 17008KT P6SM SCT120
     FM311500 23009KT P6SM SCT090 BKN150
     FM311900 01012KT P6SM SCT090 BKN150 PROB30 3120/3124 VRB18G30KT
      -TSRA BKN090CB
     FM010100 35010KT P6SM SCT150=



000
FTUS45 KBOU 310550
TAFBJC
TAF
KBJC 310550Z 3106/0106 24005KT P6SM SCT120
     FM311400 28008KT P6SM SCT090 BKN150
     FM311900 07011KT P6SM SCT090 BKN150 PROB30 3120/3124 VRB18G30KT
      -TSRA BKN090CB
     FM010000 28012KT P6SM SCT150=



000
FTUS45 KBOU 310550
TAFBJC
TAF
KBJC 310550Z 3106/0106 24005KT P6SM SCT120
     FM311400 28008KT P6SM SCT090 BKN150
     FM311900 07011KT P6SM SCT090 BKN150 PROB30 3120/3124 VRB18G30KT
      -TSRA BKN090CB
     FM010000 28012KT P6SM SCT150=



000
FTUS45 KBOU 310550
TAFAPA
TAF
KAPA 310550Z 3106/0106 17008KT P6SM SCT120
     FM311500 23009KT P6SM SCT090 BKN150
     FM311900 01012KT P6SM SCT090 BKN150 PROB30 3120/3124 VRB18G30KT
      -TSRA BKN090CB
     FM010100 35010KT P6SM SCT150=



000
FTUS45 KBOU 310541
TAFDEN
TAF
KDEN 310541Z 3106/0112 19009KT P6SM SCT130
     FM311400 28006KT P6SM SCT090 BKN150
     FM311900 01012KT P6SM SCT090 BKN150 PROB30 3120/3124 VRB18G30KT
      -TSRA BKN090CB
     FM010100 33009KT P6SM SCT150
     FM010600 VRB05KT P6SM BKN200=



000
FTUS45 KBOU 310541
TAFDEN
TAF
KDEN 310541Z 3106/0112 19009KT P6SM SCT130
     FM311400 28006KT P6SM SCT090 BKN150
     FM311900 01012KT P6SM SCT090 BKN150 PROB30 3120/3124 VRB18G30KT
      -TSRA BKN090CB
     FM010100 33009KT P6SM SCT150
     FM010600 VRB05KT P6SM BKN200=



000
FTUS45 KBOU 310305 AAC
TAFBJC
TAF AMD
KBJC 310305Z 3103/3124 27007KT P6SM FEW090 BKN140
     FM310700 24006KT P6SM SCT140 SCT200
     FM311300 VRB05KT P6SM SCT140 BKN200
     FM311800 08008KT P6SM SCT080 BKN150 PROB30 3120/3124 VRB30G32KT
      -TSRA BKN080CB=



000
FTUS45 KBOU 310305 AAC
TAFBJC
TAF AMD
KBJC 310305Z 3103/3124 27007KT P6SM FEW090 BKN140
     FM310700 24006KT P6SM SCT140 SCT200
     FM311300 VRB05KT P6SM SCT140 BKN200
     FM311800 08008KT P6SM SCT080 BKN150 PROB30 3120/3124 VRB30G32KT
      -TSRA BKN080CB=



000
FTUS45 KBOU 310304 CCA
TAFDEN
TAF COR
KDEN 310304Z 3103/0106 28010KT P6SM VCSH FEW090 BKN140
     FM310500 21010KT P6SM SCT140 SCT200
     FM311400 31006KT P6SM SCT140 BKN200
     FM311800 05009KT P6SM SCT080 BKN150 PROB30 3120/3124 VRB30G32KT
      -TSRA BKN080CB
     FM010000 33010KT P6SM VCTS SCT080CB BKN150
     FM010200 30007KT P6SM SCT150=



000
FTUS45 KBOU 310304 CCA
TAFDEN
TAF COR
KDEN 310304Z 3103/0106 28010KT P6SM VCSH FEW090 BKN140
     FM310500 21010KT P6SM SCT140 SCT200
     FM311400 31006KT P6SM SCT140 BKN200
     FM311800 05009KT P6SM SCT080 BKN150 PROB30 3120/3124 VRB30G32KT
      -TSRA BKN080CB
     FM010000 33010KT P6SM VCTS SCT080CB BKN150
     FM010200 30007KT P6SM SCT150=



000
FTUS45 KBOU 310304 AAC
TAFAPA
TAF AMD
KAPA 310304Z 3103/3124 01010KT P6SM VCSH FEW090 BKN140
     FM310600 19008KT P6SM SCT140 SCT200
     FM311300 23006KT P6SM SCT140 BKN200
     FM311800 05009KT P6SM SCT080 BKN150 PROB30 3120/3124 VRB30G32KT
      -TSRA BKN080CB=



000
FTUS45 KBOU 310302 AAC
TAFDEN
TAF AMD
KDEN 310302Z 3103/0106 28010KT P6SM FEW090 BKN140
     FM310500 21010KT P6SM SCT140 SCT200
     FM311400 31006KT P6SM SCT140 BKN200
     FM311800 05009KT P6SM SCT080 BKN150 PROB30 3120/3124 VRB30G32KT
      -TSRA BKN080CB
     FM010000 33010KT P6SM VCTS SCT080CB BKN150
     FM010200 30007KT P6SM SCT150=



000
FTUS45 KBOU 310302 AAC
TAFDEN
TAF AMD
KDEN 310302Z 3103/0106 28010KT P6SM FEW090 BKN140
     FM310500 21010KT P6SM SCT140 SCT200
     FM311400 31006KT P6SM SCT140 BKN200
     FM311800 05009KT P6SM SCT080 BKN150 PROB30 3120/3124 VRB30G32KT
      -TSRA BKN080CB
     FM010000 33010KT P6SM VCTS SCT080CB BKN150
     FM010200 30007KT P6SM SCT150=



000
FTUS45 KBOU 310203 AAB
TAFAPA
TAF AMD
KAPA 310203Z 3102/3124 19007KT P6SM VCSH SCT090 BKN140
      TEMPO 3102/3103 VRB20G32KT
     FM310300 30007KT P6SM FEW090 BKN140
     FM310600 19008KT P6SM SCT140 SCT200
     FM311300 23006KT P6SM SCT140 BKN200
     FM311800 05009KT P6SM SCT080 BKN150 PROB30 3120/3124 VRB30G32KT
      -TSRA BKN080CB=



000
FTUS45 KBOU 310202 AAB
TAFDEN
TAF AMD
KDEN 310202Z 3102/0106 07006KT P6SM SCT090 BKN140
      TEMPO 3102/3103 VRB20G32KT -SHRA BKN090
     FM310300 30010KT P6SM FEW090 BKN140
     FM310600 20010KT P6SM SCT140 SCT200
     FM311400 31006KT P6SM SCT140 BKN200
     FM311800 05009KT P6SM SCT080 BKN150 PROB30 3120/3124 VRB30G32KT
      -TSRA BKN080CB
     FM010000 33010KT P6SM VCTS SCT080CB BKN150
     FM010200 30007KT P6SM SCT150=



000
FTUS45 KBOU 310202 AAB
TAFDEN
TAF AMD
KDEN 310202Z 3102/0106 07006KT P6SM SCT090 BKN140
      TEMPO 3102/3103 VRB20G32KT -SHRA BKN090
     FM310300 30010KT P6SM FEW090 BKN140
     FM310600 20010KT P6SM SCT140 SCT200
     FM311400 31006KT P6SM SCT140 BKN200
     FM311800 05009KT P6SM SCT080 BKN150 PROB30 3120/3124 VRB30G32KT
      -TSRA BKN080CB
     FM010000 33010KT P6SM VCTS SCT080CB BKN150
     FM010200 30007KT P6SM SCT150=



000
FTUS45 KBOU 310155 AAB
TAFBJC
TAF AMD
KBJC 310155Z 3102/3124 32012KT P6SM SCT090 BKN140
      TEMPO 3102/3103 VRB20G35KT -SHRA BKN090
     FM310400 16009KT P6SM FEW090 BKN140
     FM310700 24006KT P6SM SCT140 SCT200
     FM311300 VRB05KT P6SM SCT140 BKN200
     FM311800 08008KT P6SM SCT080 BKN150 PROB30 3120/3124 VRB30G32KT
      -TSRA BKN080CB=



000
FTUS45 KBOU 310155 AAB
TAFBJC
TAF AMD
KBJC 310155Z 3102/3124 32012KT P6SM SCT090 BKN140
      TEMPO 3102/3103 VRB20G35KT -SHRA BKN090
     FM310400 16009KT P6SM FEW090 BKN140
     FM310700 24006KT P6SM SCT140 SCT200
     FM311300 VRB05KT P6SM SCT140 BKN200
     FM311800 08008KT P6SM SCT080 BKN150 PROB30 3120/3124 VRB30G32KT
      -TSRA BKN080CB=



000
FTUS45 KBOU 310104 AAA
TAFBJC
TAF AMD
KBJC 310104Z 3101/3124 09006KT P6SM VCSH SCT090 BKN140
      TEMPO 3101/3102 VRB20G30KT
     FM310400 16009KT P6SM FEW090 BKN140
     FM310700 24006KT P6SM SCT140 SCT200
     FM311300 VRB05KT P6SM SCT140 BKN200
     FM311800 08008KT P6SM SCT080 BKN150 PROB30 3120/3124 VRB30G32KT
      -TSRA BKN080CB=



000
FTUS45 KBOU 310104 AAA
TAFBJC
TAF AMD
KBJC 310104Z 3101/3124 09006KT P6SM VCSH SCT090 BKN140
      TEMPO 3101/3102 VRB20G30KT
     FM310400 16009KT P6SM FEW090 BKN140
     FM310700 24006KT P6SM SCT140 SCT200
     FM311300 VRB05KT P6SM SCT140 BKN200
     FM311800 08008KT P6SM SCT080 BKN150 PROB30 3120/3124 VRB30G32KT
      -TSRA BKN080CB=



000
FTUS45 KBOU 310103 AAA
TAFDEN
TAF AMD
KDEN 310103Z 3101/0106 34012KT P6SM VCSH FEW090 BKN140
      TEMPO 3101/3102 VRB20G32KT
     FM310200 17009KT P6SM FEW090 BKN140
     FM310700 20010KT P6SM SCT140 SCT200
     FM311400 31006KT P6SM SCT140 BKN200
     FM311800 05009KT P6SM SCT080 BKN150 PROB30 3120/3124 VRB30G32KT
      -TSRA BKN080CB
     FM010000 33010KT P6SM VCTS SCT080CB BKN150
     FM010200 30007KT P6SM SCT150=



000
FTUS45 KBOU 310103 AAA
TAFAPA
TAF AMD
KAPA 310103Z 3101/3124 19011KT P6SM VCSH SCT090 BKN140
      TEMPO 3101/3102 VRB20G32KT
     FM310300 16009KT P6SM FEW090 BKN140
     FM310600 19008KT P6SM SCT140 SCT200
     FM311300 23006KT P6SM SCT140 BKN200
     FM311800 05009KT P6SM SCT080 BKN150 PROB30 3120/3124 VRB30G32KT
      -TSRA BKN080CB=



000
FTUS45 KBOU 310103 AAA
TAFAPA
TAF AMD
KAPA 310103Z 3101/3124 19011KT P6SM VCSH SCT090 BKN140
      TEMPO 3101/3102 VRB20G32KT
     FM310300 16009KT P6SM FEW090 BKN140
     FM310600 19008KT P6SM SCT140 SCT200
     FM311300 23006KT P6SM SCT140 BKN200
     FM311800 05009KT P6SM SCT080 BKN150 PROB30 3120/3124 VRB30G32KT
      -TSRA BKN080CB=



000
FTUS45 KBOU 302323
TAFBJC
TAF
KBJC 302323Z 3100/3124 09006KT P6SM SCT090 BKN140
      TEMPO 3100/3102 VRB20G30KT -TSRA BKN090CB
     FM310400 16009KT P6SM FEW090 BKN140
     FM310700 24006KT P6SM SCT140 SCT200
     FM311300 VRB05KT P6SM SCT140 BKN200
     FM311800 08008KT P6SM SCT080 BKN150 PROB30 3120/3124 VRB30G32KT
      -TSRA BKN080CB=



000
FTUS45 KBOU 302323
TAFAPA
TAF
KAPA 302323Z 3100/3124 19011KT P6SM SCT090 BKN140
      TEMPO 3100/3102 VRB20G32KT -TSRA BKN090CB
     FM310300 16009KT P6SM FEW090 BKN140
     FM310600 19008KT P6SM SCT140 SCT200
     FM311300 23006KT P6SM SCT140 BKN200
     FM311800 05009KT P6SM SCT080 BKN150 PROB30 3120/3124 VRB30G32KT
      -TSRA BKN080CB=



000
FTUS45 KBOU 302323
TAFDEN
TAF
KDEN 302323Z 3100/0106 32012KT P6SM FEW090 BKN140
      TEMPO 3100/3102 VRB20G32KT -TSRA BKN090CB
     FM310200 17009KT P6SM FEW090 BKN140
     FM310700 20010KT P6SM SCT140 SCT200
     FM311400 31006KT P6SM SCT140 BKN200
     FM311800 05009KT P6SM SCT080 BKN150 PROB30 3120/3124 VRB30G32KT
      -TSRA BKN080CB
     FM010000 33010KT P6SM VCTS SCT080CB BKN150
     FM010200 30007KT P6SM SCT150=



000
FTUS45 KBOU 302323
TAFAPA
TAF
KAPA 302323Z 3100/3124 19011KT P6SM SCT090 BKN140
      TEMPO 3100/3102 VRB20G32KT -TSRA BKN090CB
     FM310300 16009KT P6SM FEW090 BKN140
     FM310600 19008KT P6SM SCT140 SCT200
     FM311300 23006KT P6SM SCT140 BKN200
     FM311800 05009KT P6SM SCT080 BKN150 PROB30 3120/3124 VRB30G32KT
      -TSRA BKN080CB=



000
FTUS45 KBOU 302323
TAFBJC
TAF
KBJC 302323Z 3100/3124 09006KT P6SM SCT090 BKN140
      TEMPO 3100/3102 VRB20G30KT -TSRA BKN090CB
     FM310400 16009KT P6SM FEW090 BKN140
     FM310700 24006KT P6SM SCT140 SCT200
     FM311300 VRB05KT P6SM SCT140 BKN200
     FM311800 08008KT P6SM SCT080 BKN150 PROB30 3120/3124 VRB30G32KT
      -TSRA BKN080CB=



000
FTUS45 KBOU 302323
TAFDEN
TAF
KDEN 302323Z 3100/0106 32012KT P6SM FEW090 BKN140
      TEMPO 3100/3102 VRB20G32KT -TSRA BKN090CB
     FM310200 17009KT P6SM FEW090 BKN140
     FM310700 20010KT P6SM SCT140 SCT200
     FM311400 31006KT P6SM SCT140 BKN200
     FM311800 05009KT P6SM SCT080 BKN150 PROB30 3120/3124 VRB30G32KT
      -TSRA BKN080CB
     FM010000 33010KT P6SM VCTS SCT080CB BKN150
     FM010200 30007KT P6SM SCT150=



000
FTUS45 KBOU 302248 AAC
TAFDEN
TAF AMD
KDEN 302248Z 3023/3124 32015KT P6SM FEW090 BKN140
      TEMPO 3023/3102 VRB20G32KT -TSRA BKN090CB
     FM310400 16009KT P6SM FEW090 BKN140
     FM310700 20010KT P6SM SCT140 SCT200
     FM312000 05009KT P6SM SCT080 BKN150 PROB30 3120/3124 VRB30G32KT
      -TSRA BKN080CB=



000
FTUS45 KBOU 302248 AAC
TAFDEN
TAF AMD
KDEN 302248Z 3023/3124 32015KT P6SM FEW090 BKN140
      TEMPO 3023/3102 VRB20G32KT -TSRA BKN090CB
     FM310400 16009KT P6SM FEW090 BKN140
     FM310700 20010KT P6SM SCT140 SCT200
     FM312000 05009KT P6SM SCT080 BKN150 PROB30 3120/3124 VRB30G32KT
      -TSRA BKN080CB=



000
FTUS45 KBOU 302129 AAA
TAFBJC
TAF AMD
KBJC 302129Z 3021/3118 23007KT P6SM SCT090 BKN140
      TEMPO 3022/3102 VRB20G30KT -TSRA BKN090CB
     FM310400 16009KT P6SM FEW090 BKN140
     FM310700 20010KT P6SM SCT140 SCT200=



000
FTUS45 KBOU 302129 AAA
TAFBJC
TAF AMD
KBJC 302129Z 3021/3118 23007KT P6SM SCT090 BKN140
      TEMPO 3022/3102 VRB20G30KT -TSRA BKN090CB
     FM310400 16009KT P6SM FEW090 BKN140
     FM310700 20010KT P6SM SCT140 SCT200=



000
FTUS45 KBOU 302055 AAB
TAFDEN
TAF AMD
KDEN 302055Z 3021/3124 32006KT P6SM FEW090 SCT140 BKN200
      TEMPO 3023/3102 VRB20G32KT -TSRA BKN090CB
     FM310400 16009KT P6SM FEW090 BKN140
     FM310700 20010KT P6SM SCT140 SCT200
     FM312000 05009KT P6SM SCT080 BKN150 PROB30 3120/3124 VRB30G32KT
      -TSRA BKN080CB=



000
FTUS45 KBOU 302055 AAB
TAFDEN
TAF AMD
KDEN 302055Z 3021/3124 32006KT P6SM FEW090 SCT140 BKN200
      TEMPO 3023/3102 VRB20G32KT -TSRA BKN090CB
     FM310400 16009KT P6SM FEW090 BKN140
     FM310700 20010KT P6SM SCT140 SCT200
     FM312000 05009KT P6SM SCT080 BKN150 PROB30 3120/3124 VRB30G32KT
      -TSRA BKN080CB=



000
FTUS45 KBOU 301916 AAA
TAFDEN
TAF AMD
KDEN 301916Z 3019/3124 26009KT P6SM FEW150 SCT200
     FM302000 19007KT P6SM FEW090 SCT150 BKN200
     FM302200 17009KT P6SM SCT090 BKN140
      TEMPO 3023/3102 VRB20G32KT -TSRA BKN090CB
     FM310400 16009KT P6SM FEW090 BKN140
     FM310700 20010KT P6SM SCT140 SCT200
     FM312000 05009KT P6SM SCT080 BKN150 PROB30 3120/3124 VRB30G32KT
      -TSRA BKN080CB=



000
FTUS45 KBOU 301916 AAA
TAFDEN
TAF AMD
KDEN 301916Z 3019/3124 26009KT P6SM FEW150 SCT200
     FM302000 19007KT P6SM FEW090 SCT150 BKN200
     FM302200 17009KT P6SM SCT090 BKN140
      TEMPO 3023/3102 VRB20G32KT -TSRA BKN090CB
     FM310400 16009KT P6SM FEW090 BKN140
     FM310700 20010KT P6SM SCT140 SCT200
     FM312000 05009KT P6SM SCT080 BKN150 PROB30 3120/3124 VRB30G32KT
      -TSRA BKN080CB=



000
FTUS45 KBOU 301738
TAFDEN
TAF
KDEN 301738Z 3018/3124 22009KT P6SM FEW150 SCT200
     FM302000 19007KT P6SM FEW090 SCT150 BKN200
     FM302200 17009KT P6SM SCT090 BKN140
      TEMPO 3023/3102 VRB20G32KT -TSRA BKN090CB
     FM310400 16009KT P6SM FEW090 BKN140
     FM310700 20010KT P6SM SCT140 SCT200
     FM312000 05009KT P6SM SCT080 BKN150 PROB30 3120/3124 VRB30G32KT
      -TSRA BKN080CB=



000
FTUS45 KBOU 301738
TAFAPA
TAF
KAPA 301738Z 3018/3118 21009KT P6SM FEW150 SCT200
     FM302000 18007KT P6SM FEW090 SCT150 BKN200
     FM302200 18012KT P6SM SCT090 BKN140
      TEMPO 3023/3102 VRB20G32KT -TSRA BKN090CB
     FM310300 16009KT P6SM FEW090 BKN140
     FM310600 19010KT P6SM SCT140 SCT200=



000
FTUS45 KBOU 301738
TAFBJC
TAF
KBJC 301738Z 3018/3118 VRB05KT P6SM FEW150 SCT200
     FM302000 21006KT P6SM FEW090 SCT150 BKN200
     FM302200 23010KT P6SM SCT090 BKN140
      TEMPO 3023/3102 VRB20G30KT -TSRA BKN090CB
     FM310400 16009KT P6SM FEW090 BKN140
     FM310700 20010KT P6SM SCT140 SCT200=



000
FTUS45 KBOU 301738
TAFBJC
TAF
KBJC 301738Z 3018/3118 VRB05KT P6SM FEW150 SCT200
     FM302000 21006KT P6SM FEW090 SCT150 BKN200
     FM302200 23010KT P6SM SCT090 BKN140
      TEMPO 3023/3102 VRB20G30KT -TSRA BKN090CB
     FM310400 16009KT P6SM FEW090 BKN140
     FM310700 20010KT P6SM SCT140 SCT200=



000
FTUS45 KBOU 301738
TAFAPA
TAF
KAPA 301738Z 3018/3118 21009KT P6SM FEW150 SCT200
     FM302000 18007KT P6SM FEW090 SCT150 BKN200
     FM302200 18012KT P6SM SCT090 BKN140
      TEMPO 3023/3102 VRB20G32KT -TSRA BKN090CB
     FM310300 16009KT P6SM FEW090 BKN140
     FM310600 19010KT P6SM SCT140 SCT200=



000
FTUS45 KBOU 301738
TAFDEN
TAF
KDEN 301738Z 3018/3124 22009KT P6SM FEW150 SCT200
     FM302000 19007KT P6SM FEW090 SCT150 BKN200
     FM302200 17009KT P6SM SCT090 BKN140
      TEMPO 3023/3102 VRB20G32KT -TSRA BKN090CB
     FM310400 16009KT P6SM FEW090 BKN140
     FM310700 20010KT P6SM SCT140 SCT200
     FM312000 05009KT P6SM SCT080 BKN150 PROB30 3120/3124 VRB30G32KT
      -TSRA BKN080CB=



000
FTUS45 KBOU 301502 AAB
TAFDEN
TAF AMD
KDEN 301502Z 3015/3118 23011KT P6SM SCT200
     FM302000 18012KT P6SM VCTS SCT090CB BKN140
      TEMPO 3022/3102 VRB15G25KT BKN090CB
     FM310400 20010KT P6SM SCT090 BKN140=



000
FTUS45 KBOU 301502 AAB
TAFDEN
TAF AMD
KDEN 301502Z 3015/3118 23011KT P6SM SCT200
     FM302000 18012KT P6SM VCTS SCT090CB BKN140
      TEMPO 3022/3102 VRB15G25KT BKN090CB
     FM310400 20010KT P6SM SCT090 BKN140=



000
FTUS45 KBOU 301259 AAA
TAFDEN
TAF AMD
KDEN 301259Z 3013/3118 20008KT P6SM FEW120
     FM302000 18012KT P6SM VCTS SCT090CB BKN140
      TEMPO 3022/3102 VRB15G25KT BKN090CB
     FM310400 20010KT P6SM SCT090 BKN140=



000
FTUS45 KBOU 301259 AAA
TAFDEN
TAF AMD
KDEN 301259Z 3013/3118 20008KT P6SM FEW120
     FM302000 18012KT P6SM VCTS SCT090CB BKN140
      TEMPO 3022/3102 VRB15G25KT BKN090CB
     FM310400 20010KT P6SM SCT090 BKN140=



000
FTUS45 KBOU 301120
TAFAPA
TAF
KAPA 301120Z 3012/3112 19006KT P6SM FEW120
     FM302000 16010KT P6SM VCTS SCT090 BKN140 PROB30 3022/3102
      VRB15G25KT BKN090CB
     FM310400 18008KT P6SM SCT090 BKN140=



000
FTUS45 KBOU 301120
TAFDEN
TAF
KDEN 301120Z 3012/3118 23008KT P6SM FEW120
     FM302000 18012KT P6SM VCTS SCT090 BKN140 PROB30 3022/3102
      VRB15G25KT BKN090CB
     FM310400 20010KT P6SM SCT090 BKN140=



000
FTUS45 KBOU 301120
TAFBJC
TAF
KBJC 301120Z 3012/3112 VRB04KT P6SM FEW120
     FM301800 13008KT P6SM FEW090 SCT140
     FM302100 24010KT P6SM SCT090 BKN140 PROB30 3021/3101 VRB20G30KT
      -TSRA BKN090CB
     FM310400 30008KT P6SM SCT090 BKN140=



000
FTUS45 KBOU 301120
TAFDEN
TAF
KDEN 301120Z 3012/3118 23008KT P6SM FEW120
     FM302000 18012KT P6SM VCTS SCT090 BKN140 PROB30 3022/3102
      VRB15G25KT BKN090CB
     FM310400 20010KT P6SM SCT090 BKN140=



000
FTUS45 KBOU 301120
TAFBJC
TAF
KBJC 301120Z 3012/3112 VRB04KT P6SM FEW120
     FM301800 13008KT P6SM FEW090 SCT140
     FM302100 24010KT P6SM SCT090 BKN140 PROB30 3021/3101 VRB20G30KT
      -TSRA BKN090CB
     FM310400 30008KT P6SM SCT090 BKN140=



000
FTUS45 KBOU 301120
TAFAPA
TAF
KAPA 301120Z 3012/3112 19006KT P6SM FEW120
     FM302000 16010KT P6SM VCTS SCT090 BKN140 PROB30 3022/3102
      VRB15G25KT BKN090CB
     FM310400 18008KT P6SM SCT090 BKN140=



000
FTUS45 KBOU 300829 AAA
TAFDEN
TAF AMD
KDEN 300829Z 3008/3112 23008KT P6SM FEW120
     FM302000 18012KT P6SM VCTS SCT090 BKN140 PROB30 3022/3102
      VRB15G25KT BKN070CB
     FM310400 18010KT P6SM SCT090 BKN140=



000
FTUS45 KBOU 300829 AAA
TAFDEN
TAF AMD
KDEN 300829Z 3008/3112 23008KT P6SM FEW120
     FM302000 18012KT P6SM VCTS SCT090 BKN140 PROB30 3022/3102
      VRB15G25KT BKN070CB
     FM310400 18010KT P6SM SCT090 BKN140=



000
FTUS45 KBOU 300547
TAFBJC
TAF
KBJC 300547Z 3006/3106 29006KT P6SM SCT140
     FM301800 15008KT P6SM FEW090 SCT140
     FM302100 27010KT P6SM SCT090 BKN140 PROB30 3021/3101 VRB20G30KT
      -TSRA BKN070CB=



000
FTUS45 KBOU 300547
TAFBJC
TAF
KBJC 300547Z 3006/3106 29006KT P6SM SCT140
     FM301800 15008KT P6SM FEW090 SCT140
     FM302100 27010KT P6SM SCT090 BKN140 PROB30 3021/3101 VRB20G30KT
      -TSRA BKN070CB=



000
FTUS45 KBOU 300541
TAFAPA
TAF
KAPA 300541Z 3006/3106 20010KT P6SM SCT140
     FM301800 22008KT P6SM FEW090 SCT140
     FM302000 16010KT P6SM VCTS SCT090 BKN140 PROB30 3022/3102
      VRB15G25KT BKN070CB
     FM310400 18008KT P6SM SCT090 BKN140=



000
FTUS45 KBOU 300541
TAFAPA
TAF
KAPA 300541Z 3006/3106 20010KT P6SM SCT140
     FM301800 22008KT P6SM FEW090 SCT140
     FM302000 16010KT P6SM VCTS SCT090 BKN140 PROB30 3022/3102
      VRB15G25KT BKN070CB
     FM310400 18008KT P6SM SCT090 BKN140=



000
FTUS45 KBOU 300538
TAFDEN
TAF
KDEN 300538Z 3006/3112 22010KT P6SM SCT140
     FM301800 22008KT P6SM FEW090 SCT140
     FM302000 18012KT P6SM VCTS SCT090 BKN140 PROB30 3022/3102
      VRB15G25KT BKN070CB
     FM310400 18010KT P6SM SCT090 BKN140=



000
FTUS45 KBOU 300538
TAFDEN
TAF
KDEN 300538Z 3006/3112 22010KT P6SM SCT140
     FM301800 22008KT P6SM FEW090 SCT140
     FM302000 18012KT P6SM VCTS SCT090 BKN140 PROB30 3022/3102
      VRB15G25KT BKN070CB
     FM310400 18010KT P6SM SCT090 BKN140=



000
FTUS45 KBOU 300500 AAC
TAFDEN
TAF AMD
KDEN 300500Z 3005/3106 22010KT P6SM FEW110 SCT200
     FM301700 22006KT P6SM FEW090 SCT150 BKN200
     FM302100 16012KT P6SM SCT070 BKN120 PROB30 3021/3024 VRB20G30KT
      -TSRA BKN070CB
     FM310100 20010KT P6SM SCT080 BKN140=



000
FTUS45 KBOU 300417 AAA
TAFBJC
TAF AMD
KBJC 300417Z 3004/3024 23007KT P6SM SCT100
     FM301500 VRB05KT P6SM FEW090 SCT150 BKN200
     FM302000 30012KT P6SM SCT070 BKN120 PROB30 3020/3024 VRB20G30KT
      -TSRA BKN060CB=



000
FTUS45 KBOU 300417 AAB
TAFDEN
TAF AMD
KDEN 300417Z 3004/3106 24008KT P6SM BKN110 BKN150
     FM300430 33010KT P6SM BKN110 BKN150
     FM300700 22010KT P6SM FEW110 SCT200
     FM301700 22006KT P6SM FEW090 SCT150 BKN200
     FM302100 16012KT P6SM SCT070 BKN120 PROB30 3021/3024 VRB20G30KT
      -TSRA BKN070CB
     FM310100 20010KT P6SM SCT080 BKN140=



000
FTUS45 KBOU 300417 AAB
TAFDEN
TAF AMD
KDEN 300417Z 3004/3106 24008KT P6SM BKN110 BKN150
     FM300430 33010KT P6SM BKN110 BKN150
     FM300700 22010KT P6SM FEW110 SCT200
     FM301700 22006KT P6SM FEW090 SCT150 BKN200
     FM302100 16012KT P6SM SCT070 BKN120 PROB30 3021/3024 VRB20G30KT
      -TSRA BKN070CB
     FM310100 20010KT P6SM SCT080 BKN140=



000
FTUS45 KBOU 300417 AAA
TAFBJC
TAF AMD
KBJC 300417Z 3004/3024 23007KT P6SM SCT100
     FM301500 VRB05KT P6SM FEW090 SCT150 BKN200
     FM302000 30012KT P6SM SCT070 BKN120 PROB30 3020/3024 VRB20G30KT
      -TSRA BKN060CB=



000
FTUS45 KBOU 300214 AAA
TAFDEN
TAF AMD
KDEN 300214Z 3002/3106 12006KT P6SM SCT100 BKN150
     FM300500 17010KT P6SM FEW110 SCT200
     FM301700 22006KT P6SM FEW090 SCT150 BKN200
     FM302100 16012KT P6SM SCT070 BKN120 PROB30 3021/3024 VRB20G30KT
      -TSRA BKN070CB
     FM310100 20010KT P6SM SCT080 BKN140=



000
FTUS45 KBOU 292337
TAFBJC
TAF
KBJC 292337Z 3000/3024 29010KT P6SM SCT070 BKN120
      TEMPO 3000/3002 -SHRA BKN070
     FM300200 30010KT P6SM FEW080 SCT150
     FM300500 25008KT P6SM FEW110 SCT200
     FM301500 VRB05KT P6SM FEW090 SCT150 BKN200
     FM302000 30012KT P6SM SCT070 BKN120 PROB30 3020/3024 VRB20G30KT
      -TSRA BKN060CB=



000
FTUS45 KBOU 292337
TAFAPA
TAF
KAPA 292337Z 3000/3024 02010KT P6SM VCSH SCT100 BKN180
     FM300200 22009KT P6SM FEW080 SCT150
     FM300500 20010KT P6SM FEW110 SCT200
     FM301700 22006KT P6SM FEW090 SCT150 BKN200
     FM302100 12008KT P6SM SCT080 BKN120 PROB30 3021/3024 VRB20G30KT
      -TSRA BKN070CB=



000
FTUS45 KBOU 292337
TAFBJC
TAF
KBJC 292337Z 3000/3024 29010KT P6SM SCT070 BKN120
      TEMPO 3000/3002 -SHRA BKN070
     FM300200 30010KT P6SM FEW080 SCT150
     FM300500 25008KT P6SM FEW110 SCT200
     FM301500 VRB05KT P6SM FEW090 SCT150 BKN200
     FM302000 30012KT P6SM SCT070 BKN120 PROB30 3020/3024 VRB20G30KT
      -TSRA BKN060CB=



000
FTUS45 KBOU 292337
TAFDEN
TAF
KDEN 292337Z 3000/3106 29014G24KT P6SM SCT080 BKN150
     FM300200 03010KT P6SM FEW080 SCT140
     FM300500 20010KT P6SM FEW110 SCT200
     FM301700 22006KT P6SM FEW090 SCT150 BKN200
     FM302100 16012KT P6SM SCT070 BKN120 PROB30 3021/3024 VRB20G30KT
      -TSRA BKN070CB
     FM310100 20010KT P6SM SCT080 BKN140=



000
FTUS45 KBOU 292100 AAA
TAFDEN
TAF AMD
KDEN 292100Z 2921/3024 30014KT P6SM VCSH SCT070 BKN120
      TEMPO 2921/2923 VRB20G35KT -TSRA BKN060CB
     FM300000 02010KT P6SM SCT080 BKN120
     FM300300 12008KT P6SM FEW080 SCT140
     FM300500 20010KT P6SM FEW110 SCT200
     FM301700 22006KT P6SM FEW090 SCT150 BKN200=



000
FTUS45 KBOU 292100 AAA
TAFDEN
TAF AMD
KDEN 292100Z 2921/3024 30014KT P6SM VCSH SCT070 BKN120
      TEMPO 2921/2923 VRB20G35KT -TSRA BKN060CB
     FM300000 02010KT P6SM SCT080 BKN120
     FM300300 12008KT P6SM FEW080 SCT140
     FM300500 20010KT P6SM FEW110 SCT200
     FM301700 22006KT P6SM FEW090 SCT150 BKN200=



000
FTUS45 KBOU 291738
TAFDEN
TAF
KDEN 291738Z 2918/3024 36012KT P6SM SCT070 SCT120
     FM291900 02012KT P6SM VCSH SCT070 BKN120
      TEMPO 2920/2924 VRB20G30KT -TSRA BKN060CB
     FM300100 08009KT P6SM SCT080 BKN120
     FM300300 12008KT P6SM FEW080 SCT120
     FM300500 20010KT P6SM FEW110 SCT200
     FM301700 22006KT P6SM FEW090 SCT150 BKN200=



000
FTUS45 KBOU 291738
TAFBJC
TAF
KBJC 291738Z 2918/3018 08007KT P6SM VCSH SCT070 BKN120
      TEMPO 2919/2923 VRB15G25KT -TSRA BKN060CB
     FM292300 03010KT P6SM SCT070 BKN110
      TEMPO 2923/3001 -SHRA BKN070
     FM300100 08009KT P6SM SCT080 BKN120
     FM300300 12008KT P6SM FEW080 SCT120
     FM300500 25010KT P6SM FEW110 SCT200
     FM301500 VRB05KT P6SM FEW090 SCT150 BKN200=



000
FTUS45 KBOU 291738
TAFAPA
TAF
KAPA 291738Z 2918/3018 36005KT P6SM FEW070 SCT140 SCT200
     FM291900 02012KT P6SM VCSH SCT070 BKN120
      TEMPO 2920/2924 VRB20G30KT -TSRA BKN060CB
     FM300100 08009KT P6SM SCT080 BKN120
     FM300300 12008KT P6SM FEW080 SCT120
     FM300500 20010KT P6SM FEW110 SCT200
     FM301700 22006KT P6SM FEW090 SCT150 BKN200=



000
FTUS45 KBOU 291738
TAFBJC
TAF
KBJC 291738Z 2918/3018 08007KT P6SM VCSH SCT070 BKN120
      TEMPO 2919/2923 VRB15G25KT -TSRA BKN060CB
     FM292300 03010KT P6SM SCT070 BKN110
      TEMPO 2923/3001 -SHRA BKN070
     FM300100 08009KT P6SM SCT080 BKN120
     FM300300 12008KT P6SM FEW080 SCT120
     FM300500 25010KT P6SM FEW110 SCT200
     FM301500 VRB05KT P6SM FEW090 SCT150 BKN200=



000
FTUS45 KBOU 291738
TAFDEN
TAF
KDEN 291738Z 2918/3024 36012KT P6SM SCT070 SCT120
     FM291900 02012KT P6SM VCSH SCT070 BKN120
      TEMPO 2920/2924 VRB20G30KT -TSRA BKN060CB
     FM300100 08009KT P6SM SCT080 BKN120
     FM300300 12008KT P6SM FEW080 SCT120
     FM300500 20010KT P6SM FEW110 SCT200
     FM301700 22006KT P6SM FEW090 SCT150 BKN200=



000
FTUS45 KBOU 291738
TAFAPA
TAF
KAPA 291738Z 2918/3018 36005KT P6SM FEW070 SCT140 SCT200
     FM291900 02012KT P6SM VCSH SCT070 BKN120
      TEMPO 2920/2924 VRB20G30KT -TSRA BKN060CB
     FM300100 08009KT P6SM SCT080 BKN120
     FM300300 12008KT P6SM FEW080 SCT120
     FM300500 20010KT P6SM FEW110 SCT200
     FM301700 22006KT P6SM FEW090 SCT150 BKN200=



000
FTUS45 KBOU 291602 AAB
TAFDEN
TAF AMD
KDEN 291602Z 2916/3018 23009KT P6SM FEW070 SCT140
     FM291700 34012KT P6SM FEW070 SCT140
     FM291900 36011KT P6SM SCT070 SCT140 SCT200
     FM292100 02012KT P6SM SCT070 BKN140
      TEMPO 2921/2924 VRB20G30KT -TSRA BKN060CB
     FM300200 21009KT P6SM SCT080 SCT150
     FM300600 22011KT P6SM FEW150
     FM301500 VRB05KT P6SM FEW150 FEW200=



000
FTUS45 KBOU 291602 AAB
TAFDEN
TAF AMD
KDEN 291602Z 2916/3018 23009KT P6SM FEW070 SCT140
     FM291700 34012KT P6SM FEW070 SCT140
     FM291900 36011KT P6SM SCT070 SCT140 SCT200
     FM292100 02012KT P6SM SCT070 BKN140
      TEMPO 2921/2924 VRB20G30KT -TSRA BKN060CB
     FM300200 21009KT P6SM SCT080 SCT150
     FM300600 22011KT P6SM FEW150
     FM301500 VRB05KT P6SM FEW150 FEW200=



000
FTUS45 KBOU 291409 AAA
TAFDEN
TAF AMD
KDEN 291409Z 2914/3018 23009KT P6SM FEW070 SCT140
     FM291600 28009KT P6SM FEW070 SCT140
     FM291800 34010KT P6SM FEW070 SCT140 SCT200
     FM292100 34012KT P6SM SCT070 BKN140
      TEMPO 2921/2924 VRB20G30KT -TSRA BKN060CB
     FM300200 21009KT P6SM SCT080 SCT150
     FM300600 22011KT P6SM FEW150
     FM301500 VRB05KT P6SM FEW150 FEW200=



000
FTUS45 KBOU 291409 AAA
TAFDEN
TAF AMD
KDEN 291409Z 2914/3018 23009KT P6SM FEW070 SCT140
     FM291600 28009KT P6SM FEW070 SCT140
     FM291800 34010KT P6SM FEW070 SCT140 SCT200
     FM292100 34012KT P6SM SCT070 BKN140
      TEMPO 2921/2924 VRB20G30KT -TSRA BKN060CB
     FM300200 21009KT P6SM SCT080 SCT150
     FM300600 22011KT P6SM FEW150
     FM301500 VRB05KT P6SM FEW150 FEW200=



    US Dept of Commerce
    National Oceanic and Atmospheric Administration
    National Weather Service
    1325 East West Highway
    Silver Spring, MD 20910
    Page Author: NWS Internet Services Team
Disclaimer
Information Quality
Credits
Glossary
Privacy Policy
Freedom of Information Act (FOIA)
About Us
Career Opportunities